<?xml version="1.0" encoding="UTF-8" standalone="no" ?>
<gpx xmlns="http://www.topografix.com/GPX/1/1" xmlns:xsi="http://www.w3.org/2001/XMLSchema-instance" xsi:schemaLocation="http://www.topografix.com/GPX/1/1 http://www.topografix.com/GPX/1/1/gpx.xsd" version="1.1" creator="VisuGPX - https://www.visugpx.com">
  <metadata>
    <name>rando blaison</name>
    <desc><![CDATA[rando blaison gohier]]></desc>
  </metadata>
  <trk>
    <name><![CDATA[15 janv. 2012 09:37:01]]></name>
    <cmt><![CDATA[15 janv. 2012 09:37:01]]></cmt>
    <trkseg>
      <trkpt lat="47.40045" lon="-0.37067">
        <ele>-10</ele>
        <time>2012-01-15T08:37:02Z</time>
      </trkpt>
      <trkpt lat="47.40036" lon="-0.37081">
        <ele>-18</ele>
        <time>2012-01-15T08:37:06Z</time>
      </trkpt>
      <trkpt lat="47.40015" lon="-0.37087">
        <ele>-18</ele>
        <time>2012-01-15T08:37:21Z</time>
      </trkpt>
      <trkpt lat="47.40016" lon="-0.37099">
        <ele>-16</ele>
        <time>2012-01-15T08:38:17Z</time>
      </trkpt>
      <trkpt lat="47.4004" lon="-0.37167">
        <ele>-17</ele>
        <time>2012-01-15T08:39:12Z</time>
      </trkpt>
      <trkpt lat="47.4005" lon="-0.37168">
        <ele>-18</ele>
        <time>2012-01-15T08:39:16Z</time>
      </trkpt>
      <trkpt lat="47.40059" lon="-0.37172">
        <ele>-19</ele>
        <time>2012-01-15T08:39:21Z</time>
      </trkpt>
      <trkpt lat="47.40069" lon="-0.3717">
        <ele>-19</ele>
        <time>2012-01-15T08:39:26Z</time>
      </trkpt>
      <trkpt lat="47.40076" lon="-0.3716">
        <ele>-20</ele>
        <time>2012-01-15T08:39:36Z</time>
      </trkpt>
      <trkpt lat="47.40085" lon="-0.37158">
        <ele>-20</ele>
        <time>2012-01-15T08:39:48Z</time>
      </trkpt>
      <trkpt lat="47.40095" lon="-0.37159">
        <ele>-19</ele>
        <time>2012-01-15T08:39:57Z</time>
      </trkpt>
      <trkpt lat="47.40113" lon="-0.3717">
        <ele>-18</ele>
        <time>2012-01-15T08:40:10Z</time>
      </trkpt>
      <trkpt lat="47.40126" lon="-0.37189">
        <ele>-16</ele>
        <time>2012-01-15T08:40:24Z</time>
      </trkpt>
      <trkpt lat="47.40168" lon="-0.3721">
        <ele>-11</ele>
        <time>2012-01-15T08:40:56Z</time>
      </trkpt>
      <trkpt lat="47.40187" lon="-0.37204">
        <ele>-4</ele>
        <time>2012-01-15T08:41:15Z</time>
      </trkpt>
      <trkpt lat="47.40196" lon="-0.37212">
        <ele>-4</ele>
        <time>2012-01-15T08:41:19Z</time>
      </trkpt>
      <trkpt lat="47.40204" lon="-0.37221">
        <ele>-3</ele>
        <time>2012-01-15T08:41:23Z</time>
      </trkpt>
      <trkpt lat="47.40212" lon="-0.37227">
        <ele>-4</ele>
        <time>2012-01-15T08:41:28Z</time>
      </trkpt>
      <trkpt lat="47.40222" lon="-0.37225">
        <ele>-5</ele>
        <time>2012-01-15T08:41:37Z</time>
      </trkpt>
      <trkpt lat="47.40231" lon="-0.37232">
        <ele>-8</ele>
        <time>2012-01-15T08:41:43Z</time>
      </trkpt>
      <trkpt lat="47.40266" lon="-0.37262">
        <ele>-28</ele>
        <time>2012-01-15T08:42:21Z</time>
      </trkpt>
      <trkpt lat="47.40308" lon="-0.37295">
        <ele>-30</ele>
        <time>2012-01-15T08:43:00Z</time>
      </trkpt>
      <trkpt lat="47.40318" lon="-0.37301">
        <ele>-31</ele>
        <time>2012-01-15T08:43:06Z</time>
      </trkpt>
      <trkpt lat="47.40325" lon="-0.37307">
        <ele>-28</ele>
        <time>2012-01-15T08:43:15Z</time>
      </trkpt>
      <trkpt lat="47.40334" lon="-0.37316">
        <ele>-29</ele>
        <time>2012-01-15T08:43:22Z</time>
      </trkpt>
      <trkpt lat="47.40342" lon="-0.37324">
        <ele>-32</ele>
        <time>2012-01-15T08:43:28Z</time>
      </trkpt>
      <trkpt lat="47.40348" lon="-0.37335">
        <ele>-30</ele>
        <time>2012-01-15T08:43:36Z</time>
      </trkpt>
      <trkpt lat="47.40356" lon="-0.37338">
        <ele>-30</ele>
        <time>2012-01-15T08:43:44Z</time>
      </trkpt>
      <trkpt lat="47.40365" lon="-0.37343">
        <ele>-30</ele>
        <time>2012-01-15T08:43:50Z</time>
      </trkpt>
      <trkpt lat="47.40374" lon="-0.37349">
        <ele>-30</ele>
        <time>2012-01-15T08:43:58Z</time>
      </trkpt>
      <trkpt lat="47.40382" lon="-0.37356">
        <ele>-28</ele>
        <time>2012-01-15T08:44:10Z</time>
      </trkpt>
      <trkpt lat="47.4039" lon="-0.37364">
        <ele>-28</ele>
        <time>2012-01-15T08:44:21Z</time>
      </trkpt>
      <trkpt lat="47.40399" lon="-0.37369">
        <ele>-28</ele>
        <time>2012-01-15T08:44:27Z</time>
      </trkpt>
      <trkpt lat="47.40408" lon="-0.37374">
        <ele>-28</ele>
        <time>2012-01-15T08:44:36Z</time>
      </trkpt>
      <trkpt lat="47.40436" lon="-0.37392">
        <ele>-26</ele>
        <time>2012-01-15T08:44:59Z</time>
      </trkpt>
      <trkpt lat="47.40455" lon="-0.37398">
        <ele>-27</ele>
        <time>2012-01-15T08:45:14Z</time>
      </trkpt>
      <trkpt lat="47.40464" lon="-0.37398">
        <ele>-27</ele>
        <time>2012-01-15T08:45:20Z</time>
      </trkpt>
      <trkpt lat="47.40473" lon="-0.37401">
        <ele>-26</ele>
        <time>2012-01-15T08:45:25Z</time>
      </trkpt>
      <trkpt lat="47.40482" lon="-0.37407">
        <ele>-26</ele>
        <time>2012-01-15T08:45:32Z</time>
      </trkpt>
      <trkpt lat="47.40501" lon="-0.37411">
        <ele>-29</ele>
        <time>2012-01-15T08:45:53Z</time>
      </trkpt>
      <trkpt lat="47.40509" lon="-0.37415">
        <ele>-29</ele>
        <time>2012-01-15T08:46:02Z</time>
      </trkpt>
      <trkpt lat="47.40519" lon="-0.37417">
        <ele>-30</ele>
        <time>2012-01-15T08:46:10Z</time>
      </trkpt>
      <trkpt lat="47.4053" lon="-0.37418">
        <ele>-29</ele>
        <time>2012-01-15T08:46:15Z</time>
      </trkpt>
      <trkpt lat="47.40557" lon="-0.37432">
        <ele>-26</ele>
        <time>2012-01-15T08:46:44Z</time>
      </trkpt>
      <trkpt lat="47.40566" lon="-0.37432">
        <ele>-26</ele>
        <time>2012-01-15T08:46:51Z</time>
      </trkpt>
      <trkpt lat="47.40576" lon="-0.3743">
        <ele>-26</ele>
        <time>2012-01-15T08:47:00Z</time>
      </trkpt>
      <trkpt lat="47.40589" lon="-0.37433">
        <ele>-27</ele>
        <time>2012-01-15T08:47:20Z</time>
      </trkpt>
      <trkpt lat="47.40599" lon="-0.37437">
        <ele>-27</ele>
        <time>2012-01-15T08:47:27Z</time>
      </trkpt>
      <trkpt lat="47.40608" lon="-0.37442">
        <ele>-28</ele>
        <time>2012-01-15T08:47:34Z</time>
      </trkpt>
      <trkpt lat="47.40616" lon="-0.37449">
        <ele>-28</ele>
        <time>2012-01-15T08:47:41Z</time>
      </trkpt>
      <trkpt lat="47.40633" lon="-0.37461">
        <ele>-29</ele>
        <time>2012-01-15T08:47:57Z</time>
      </trkpt>
      <trkpt lat="47.40636" lon="-0.37474">
        <ele>-29</ele>
        <time>2012-01-15T08:48:05Z</time>
      </trkpt>
      <trkpt lat="47.40636" lon="-0.37488">
        <ele>-29</ele>
        <time>2012-01-15T08:48:12Z</time>
      </trkpt>
      <trkpt lat="47.4064" lon="-0.37501">
        <ele>-28</ele>
        <time>2012-01-15T08:48:20Z</time>
      </trkpt>
      <trkpt lat="47.40639" lon="-0.37515">
        <ele>-28</ele>
        <time>2012-01-15T08:48:29Z</time>
      </trkpt>
      <trkpt lat="47.40637" lon="-0.37524">
        <ele>-29</ele>
        <time>2012-01-15T08:48:44Z</time>
      </trkpt>
      <trkpt lat="47.40637" lon="-0.37538">
        <ele>-28</ele>
        <time>2012-01-15T08:49:39Z</time>
      </trkpt>
      <trkpt lat="47.4063" lon="-0.37593">
        <ele>-27</ele>
        <time>2012-01-15T08:50:13Z</time>
      </trkpt>
      <trkpt lat="47.40631" lon="-0.37606">
        <ele>-26</ele>
        <time>2012-01-15T08:50:21Z</time>
      </trkpt>
      <trkpt lat="47.40621" lon="-0.37663">
        <ele>-27</ele>
        <time>2012-01-15T08:50:57Z</time>
      </trkpt>
      <trkpt lat="47.40622" lon="-0.37677">
        <ele>-27</ele>
        <time>2012-01-15T08:51:04Z</time>
      </trkpt>
      <trkpt lat="47.4062" lon="-0.37691">
        <ele>-27</ele>
        <time>2012-01-15T08:51:12Z</time>
      </trkpt>
      <trkpt lat="47.40619" lon="-0.37731">
        <ele>-25</ele>
        <time>2012-01-15T08:51:48Z</time>
      </trkpt>
      <trkpt lat="47.40623" lon="-0.3775">
        <ele>-23</ele>
        <time>2012-01-15T08:51:53Z</time>
      </trkpt>
      <trkpt lat="47.40621" lon="-0.37764">
        <ele>-22</ele>
        <time>2012-01-15T08:52:01Z</time>
      </trkpt>
      <trkpt lat="47.40621" lon="-0.37792">
        <ele>-20</ele>
        <time>2012-01-15T08:52:21Z</time>
      </trkpt>
      <trkpt lat="47.40622" lon="-0.37806">
        <ele>-21</ele>
        <time>2012-01-15T08:52:27Z</time>
      </trkpt>
      <trkpt lat="47.40621" lon="-0.37833">
        <ele>-21</ele>
        <time>2012-01-15T08:52:43Z</time>
      </trkpt>
      <trkpt lat="47.40619" lon="-0.37847">
        <ele>-22</ele>
        <time>2012-01-15T08:52:53Z</time>
      </trkpt>
      <trkpt lat="47.40622" lon="-0.3786">
        <ele>-23</ele>
        <time>2012-01-15T08:53:02Z</time>
      </trkpt>
      <trkpt lat="47.40629" lon="-0.37884">
        <ele>-25</ele>
        <time>2012-01-15T08:53:15Z</time>
      </trkpt>
      <trkpt lat="47.40625" lon="-0.37897">
        <ele>-26</ele>
        <time>2012-01-15T08:53:23Z</time>
      </trkpt>
      <trkpt lat="47.40619" lon="-0.37907">
        <ele>-26</ele>
        <time>2012-01-15T08:53:30Z</time>
      </trkpt>
      <trkpt lat="47.40621" lon="-0.3792">
        <ele>-25</ele>
        <time>2012-01-15T08:53:38Z</time>
      </trkpt>
      <trkpt lat="47.4062" lon="-0.37948">
        <ele>-26</ele>
        <time>2012-01-15T08:53:54Z</time>
      </trkpt>
      <trkpt lat="47.40621" lon="-0.37962">
        <ele>-26</ele>
        <time>2012-01-15T08:54:01Z</time>
      </trkpt>
      <trkpt lat="47.40622" lon="-0.37976">
        <ele>-28</ele>
        <time>2012-01-15T08:54:11Z</time>
      </trkpt>
      <trkpt lat="47.40621" lon="-0.38">
        <ele>-28</ele>
        <time>2012-01-15T08:54:42Z</time>
      </trkpt>
      <trkpt lat="47.40619" lon="-0.38013">
        <ele>-29</ele>
        <time>2012-01-15T08:54:51Z</time>
      </trkpt>
      <trkpt lat="47.40621" lon="-0.3807">
        <ele>-25</ele>
        <time>2012-01-15T08:55:28Z</time>
      </trkpt>
      <trkpt lat="47.4062" lon="-0.38084">
        <ele>-25</ele>
        <time>2012-01-15T08:55:36Z</time>
      </trkpt>
      <trkpt lat="47.40621" lon="-0.38113">
        <ele>-22</ele>
        <time>2012-01-15T08:55:55Z</time>
      </trkpt>
      <trkpt lat="47.40623" lon="-0.38126">
        <ele>-21</ele>
        <time>2012-01-15T08:56:01Z</time>
      </trkpt>
      <trkpt lat="47.40619" lon="-0.38138">
        <ele>-20</ele>
        <time>2012-01-15T08:56:11Z</time>
      </trkpt>
      <trkpt lat="47.40621" lon="-0.3815">
        <ele>-20</ele>
        <time>2012-01-15T08:56:37Z</time>
      </trkpt>
      <trkpt lat="47.40623" lon="-0.38163">
        <ele>-20</ele>
        <time>2012-01-15T08:56:46Z</time>
      </trkpt>
      <trkpt lat="47.40632" lon="-0.38187">
        <ele>-17</ele>
        <time>2012-01-15T08:57:02Z</time>
      </trkpt>
      <trkpt lat="47.40632" lon="-0.382">
        <ele>-17</ele>
        <time>2012-01-15T08:57:11Z</time>
      </trkpt>
      <trkpt lat="47.40631" lon="-0.38214">
        <ele>-18</ele>
        <time>2012-01-15T08:57:23Z</time>
      </trkpt>
      <trkpt lat="47.40641" lon="-0.38253">
        <ele>-16</ele>
        <time>2012-01-15T08:57:45Z</time>
      </trkpt>
      <trkpt lat="47.40647" lon="-0.38263">
        <ele>-15</ele>
        <time>2012-01-15T08:57:50Z</time>
      </trkpt>
      <trkpt lat="47.40648" lon="-0.38277">
        <ele>-16</ele>
        <time>2012-01-15T08:58:00Z</time>
      </trkpt>
      <trkpt lat="47.4065" lon="-0.38293">
        <ele>-15</ele>
        <time>2012-01-15T08:58:09Z</time>
      </trkpt>
      <trkpt lat="47.40652" lon="-0.38335">
        <ele>-15</ele>
        <time>2012-01-15T08:58:31Z</time>
      </trkpt>
      <trkpt lat="47.40656" lon="-0.38347">
        <ele>-13</ele>
        <time>2012-01-15T08:58:39Z</time>
      </trkpt>
      <trkpt lat="47.40651" lon="-0.3836">
        <ele>-12</ele>
        <time>2012-01-15T08:58:48Z</time>
      </trkpt>
      <trkpt lat="47.40655" lon="-0.38372">
        <ele>-9</ele>
        <time>2012-01-15T08:58:56Z</time>
      </trkpt>
      <trkpt lat="47.40651" lon="-0.38399">
        <ele>-4</ele>
        <time>2012-01-15T08:59:16Z</time>
      </trkpt>
      <trkpt lat="47.4066" lon="-0.38442">
        <ele>4</ele>
        <time>2012-01-15T08:59:40Z</time>
      </trkpt>
      <trkpt lat="47.40656" lon="-0.38456">
        <ele>5</ele>
        <time>2012-01-15T08:59:45Z</time>
      </trkpt>
      <trkpt lat="47.4066" lon="-0.38468">
        <ele>6</ele>
        <time>2012-01-15T08:59:55Z</time>
      </trkpt>
      <trkpt lat="47.40666" lon="-0.38481">
        <ele>5</ele>
        <time>2012-01-15T09:00:02Z</time>
      </trkpt>
      <trkpt lat="47.40689" lon="-0.38531">
        <ele>-3</ele>
        <time>2012-01-15T09:00:38Z</time>
      </trkpt>
      <trkpt lat="47.40698" lon="-0.38555">
        <ele>-9</ele>
        <time>2012-01-15T09:00:54Z</time>
      </trkpt>
      <trkpt lat="47.40701" lon="-0.38568">
        <ele>-10</ele>
        <time>2012-01-15T09:01:03Z</time>
      </trkpt>
      <trkpt lat="47.40705" lon="-0.3858">
        <ele>-10</ele>
        <time>2012-01-15T09:01:10Z</time>
      </trkpt>
      <trkpt lat="47.40713" lon="-0.38588">
        <ele>-11</ele>
        <time>2012-01-15T09:01:16Z</time>
      </trkpt>
      <trkpt lat="47.40714" lon="-0.38601">
        <ele>-12</ele>
        <time>2012-01-15T09:01:22Z</time>
      </trkpt>
      <trkpt lat="47.4072" lon="-0.38613">
        <ele>-13</ele>
        <time>2012-01-15T09:01:28Z</time>
      </trkpt>
      <trkpt lat="47.40728" lon="-0.38622">
        <ele>-12</ele>
        <time>2012-01-15T09:01:32Z</time>
      </trkpt>
      <trkpt lat="47.40735" lon="-0.38647">
        <ele>-12</ele>
        <time>2012-01-15T09:01:47Z</time>
      </trkpt>
      <trkpt lat="47.40731" lon="-0.38659">
        <ele>-11</ele>
        <time>2012-01-15T09:01:57Z</time>
      </trkpt>
      <trkpt lat="47.40728" lon="-0.38672">
        <ele>-10</ele>
        <time>2012-01-15T09:02:07Z</time>
      </trkpt>
      <trkpt lat="47.40725" lon="-0.38682">
        <ele>-10</ele>
        <time>2012-01-15T09:02:24Z</time>
      </trkpt>
      <trkpt lat="47.40731" lon="-0.38698">
        <ele>-10</ele>
        <time>2012-01-15T09:02:29Z</time>
      </trkpt>
      <trkpt lat="47.40736" lon="-0.38709">
        <ele>-11</ele>
        <time>2012-01-15T09:02:36Z</time>
      </trkpt>
      <trkpt lat="47.40744" lon="-0.38716">
        <ele>-11</ele>
        <time>2012-01-15T09:02:44Z</time>
      </trkpt>
      <trkpt lat="47.4075" lon="-0.38742">
        <ele>-14</ele>
        <time>2012-01-15T09:02:59Z</time>
      </trkpt>
      <trkpt lat="47.40759" lon="-0.38749">
        <ele>-15</ele>
        <time>2012-01-15T09:03:05Z</time>
      </trkpt>
      <trkpt lat="47.40768" lon="-0.38748">
        <ele>-15</ele>
        <time>2012-01-15T09:03:09Z</time>
      </trkpt>
      <trkpt lat="47.40772" lon="-0.38761">
        <ele>-17</ele>
        <time>2012-01-15T09:03:15Z</time>
      </trkpt>
      <trkpt lat="47.40771" lon="-0.38786">
        <ele>-20</ele>
        <time>2012-01-15T09:03:28Z</time>
      </trkpt>
      <trkpt lat="47.40777" lon="-0.38806">
        <ele>-20</ele>
        <time>2012-01-15T09:03:42Z</time>
      </trkpt>
      <trkpt lat="47.40785" lon="-0.38824">
        <ele>-21</ele>
        <time>2012-01-15T09:03:55Z</time>
      </trkpt>
      <trkpt lat="47.40799" lon="-0.38835">
        <ele>-26</ele>
        <time>2012-01-15T09:04:04Z</time>
      </trkpt>
      <trkpt lat="47.40808" lon="-0.38845">
        <ele>-25</ele>
        <time>2012-01-15T09:04:10Z</time>
      </trkpt>
      <trkpt lat="47.40814" lon="-0.38856">
        <ele>-24</ele>
        <time>2012-01-15T09:04:16Z</time>
      </trkpt>
      <trkpt lat="47.40816" lon="-0.3887">
        <ele>-23</ele>
        <time>2012-01-15T09:04:24Z</time>
      </trkpt>
      <trkpt lat="47.40821" lon="-0.38881">
        <ele>-22</ele>
        <time>2012-01-15T09:04:31Z</time>
      </trkpt>
      <trkpt lat="47.40827" lon="-0.3889">
        <ele>-23</ele>
        <time>2012-01-15T09:04:38Z</time>
      </trkpt>
      <trkpt lat="47.40847" lon="-0.38893">
        <ele>-32</ele>
        <time>2012-01-15T09:04:52Z</time>
      </trkpt>
      <trkpt lat="47.4085" lon="-0.38906">
        <ele>-37</ele>
        <time>2012-01-15T09:04:59Z</time>
      </trkpt>
      <trkpt lat="47.4085" lon="-0.3892">
        <ele>-38</ele>
        <time>2012-01-15T09:05:05Z</time>
      </trkpt>
      <trkpt lat="47.40856" lon="-0.38934">
        <ele>-28</ele>
        <time>2012-01-15T09:05:15Z</time>
      </trkpt>
      <trkpt lat="47.40868" lon="-0.38933">
        <ele>-29</ele>
        <time>2012-01-15T09:05:26Z</time>
      </trkpt>
      <trkpt lat="47.40876" lon="-0.38942">
        <ele>-32</ele>
        <time>2012-01-15T09:05:31Z</time>
      </trkpt>
      <trkpt lat="47.40911" lon="-0.38988">
        <ele>-46</ele>
        <time>2012-01-15T09:06:01Z</time>
      </trkpt>
      <trkpt lat="47.40942" lon="-0.39028">
        <ele>-55</ele>
        <time>2012-01-15T09:06:37Z</time>
      </trkpt>
      <trkpt lat="47.4094" lon="-0.39041">
        <ele>-52</ele>
        <time>2012-01-15T09:06:43Z</time>
      </trkpt>
      <trkpt lat="47.40937" lon="-0.39054">
        <ele>-51</ele>
        <time>2012-01-15T09:06:56Z</time>
      </trkpt>
      <trkpt lat="47.40945" lon="-0.39063">
        <ele>-52</ele>
        <time>2012-01-15T09:07:03Z</time>
      </trkpt>
      <trkpt lat="47.4095" lon="-0.39076">
        <ele>-54</ele>
        <time>2012-01-15T09:07:14Z</time>
      </trkpt>
      <trkpt lat="47.40958" lon="-0.39086">
        <ele>-55</ele>
        <time>2012-01-15T09:07:23Z</time>
      </trkpt>
      <trkpt lat="47.40962" lon="-0.39101">
        <ele>-57</ele>
        <time>2012-01-15T09:07:36Z</time>
      </trkpt>
      <trkpt lat="47.40969" lon="-0.3911">
        <ele>-57</ele>
        <time>2012-01-15T09:07:42Z</time>
      </trkpt>
      <trkpt lat="47.40972" lon="-0.39122">
        <ele>-55</ele>
        <time>2012-01-15T09:07:57Z</time>
      </trkpt>
      <trkpt lat="47.40972" lon="-0.39137">
        <ele>-55</ele>
        <time>2012-01-15T09:08:04Z</time>
      </trkpt>
      <trkpt lat="47.40989" lon="-0.39186">
        <ele>-48</ele>
        <time>2012-01-15T09:08:37Z</time>
      </trkpt>
      <trkpt lat="47.40979" lon="-0.39189">
        <ele>-44</ele>
        <time>2012-01-15T09:08:42Z</time>
      </trkpt>
      <trkpt lat="47.40979" lon="-0.39208">
        <ele>-38</ele>
        <time>2012-01-15T09:09:03Z</time>
      </trkpt>
      <trkpt lat="47.40988" lon="-0.3924">
        <ele>-33</ele>
        <time>2012-01-15T09:09:29Z</time>
      </trkpt>
      <trkpt lat="47.4099" lon="-0.39257">
        <ele>-33</ele>
        <time>2012-01-15T09:09:37Z</time>
      </trkpt>
      <trkpt lat="47.40998" lon="-0.39262">
        <ele>-25</ele>
        <time>2012-01-15T09:09:43Z</time>
      </trkpt>
      <trkpt lat="47.41009" lon="-0.39285">
        <ele>-17</ele>
        <time>2012-01-15T09:09:56Z</time>
      </trkpt>
      <trkpt lat="47.41012" lon="-0.39299">
        <ele>-16</ele>
        <time>2012-01-15T09:10:04Z</time>
      </trkpt>
      <trkpt lat="47.41014" lon="-0.39312">
        <ele>-18</ele>
        <time>2012-01-15T09:10:13Z</time>
      </trkpt>
      <trkpt lat="47.41007" lon="-0.39323">
        <ele>-19</ele>
        <time>2012-01-15T09:10:17Z</time>
      </trkpt>
      <trkpt lat="47.41001" lon="-0.39328">
        <ele>-21</ele>
        <time>2012-01-15T09:10:18Z</time>
      </trkpt>
      <trkpt lat="47.41005" lon="-0.39341">
        <ele>-26</ele>
        <time>2012-01-15T09:10:27Z</time>
      </trkpt>
      <trkpt lat="47.4101" lon="-0.39353">
        <ele>-30</ele>
        <time>2012-01-15T09:10:36Z</time>
      </trkpt>
      <trkpt lat="47.41018" lon="-0.39363">
        <ele>-31</ele>
        <time>2012-01-15T09:10:44Z</time>
      </trkpt>
      <trkpt lat="47.41029" lon="-0.39387">
        <ele>-31</ele>
        <time>2012-01-15T09:10:59Z</time>
      </trkpt>
      <trkpt lat="47.41038" lon="-0.39412">
        <ele>-28</ele>
        <time>2012-01-15T09:11:15Z</time>
      </trkpt>
      <trkpt lat="47.41043" lon="-0.39425">
        <ele>-29</ele>
        <time>2012-01-15T09:11:20Z</time>
      </trkpt>
      <trkpt lat="47.41047" lon="-0.39438">
        <ele>-27</ele>
        <time>2012-01-15T09:11:27Z</time>
      </trkpt>
      <trkpt lat="47.41051" lon="-0.39451">
        <ele>-29</ele>
        <time>2012-01-15T09:11:33Z</time>
      </trkpt>
      <trkpt lat="47.41054" lon="-0.39465">
        <ele>-29</ele>
        <time>2012-01-15T09:11:41Z</time>
      </trkpt>
      <trkpt lat="47.41059" lon="-0.39477">
        <ele>-29</ele>
        <time>2012-01-15T09:11:51Z</time>
      </trkpt>
      <trkpt lat="47.41061" lon="-0.3949">
        <ele>-30</ele>
        <time>2012-01-15T09:11:59Z</time>
      </trkpt>
      <trkpt lat="47.41056" lon="-0.39516">
        <ele>-24</ele>
        <time>2012-01-15T09:12:17Z</time>
      </trkpt>
      <trkpt lat="47.41059" lon="-0.39523">
        <ele>-20</ele>
        <time>2012-01-15T09:12:30Z</time>
      </trkpt>
      <trkpt lat="47.41016" lon="-0.39574">
        <ele>-23</ele>
        <time>2012-01-15T09:14:09Z</time>
      </trkpt>
      <trkpt lat="47.40996" lon="-0.39575">
        <ele>-26</ele>
        <time>2012-01-15T09:14:33Z</time>
      </trkpt>
      <trkpt lat="47.40957" lon="-0.3958">
        <ele>-32</ele>
        <time>2012-01-15T09:15:08Z</time>
      </trkpt>
      <trkpt lat="47.40931" lon="-0.39584">
        <ele>-33</ele>
        <time>2012-01-15T09:15:39Z</time>
      </trkpt>
      <trkpt lat="47.40911" lon="-0.39585">
        <ele>-32</ele>
        <time>2012-01-15T09:15:55Z</time>
      </trkpt>
      <trkpt lat="47.40871" lon="-0.39589">
        <ele>-32</ele>
        <time>2012-01-15T09:16:29Z</time>
      </trkpt>
      <trkpt lat="47.40853" lon="-0.39594">
        <ele>-30</ele>
        <time>2012-01-15T09:16:45Z</time>
      </trkpt>
      <trkpt lat="47.40833" lon="-0.39599">
        <ele>-28</ele>
        <time>2012-01-15T09:17:01Z</time>
      </trkpt>
      <trkpt lat="47.40823" lon="-0.39602">
        <ele>-26</ele>
        <time>2012-01-15T09:17:12Z</time>
      </trkpt>
      <trkpt lat="47.40804" lon="-0.39602">
        <ele>-26</ele>
        <time>2012-01-15T09:17:29Z</time>
      </trkpt>
      <trkpt lat="47.40765" lon="-0.39614">
        <ele>-19</ele>
        <time>2012-01-15T09:18:01Z</time>
      </trkpt>
      <trkpt lat="47.40755" lon="-0.39617">
        <ele>-19</ele>
        <time>2012-01-15T09:18:12Z</time>
      </trkpt>
      <trkpt lat="47.40724" lon="-0.39621">
        <ele>-14</ele>
        <time>2012-01-15T09:18:38Z</time>
      </trkpt>
      <trkpt lat="47.40705" lon="-0.39622">
        <ele>-15</ele>
        <time>2012-01-15T09:18:56Z</time>
      </trkpt>
      <trkpt lat="47.40686" lon="-0.39628">
        <ele>-13</ele>
        <time>2012-01-15T09:19:10Z</time>
      </trkpt>
      <trkpt lat="47.40674" lon="-0.39629">
        <ele>-18</ele>
        <time>2012-01-15T09:19:24Z</time>
      </trkpt>
      <trkpt lat="47.40664" lon="-0.3963">
        <ele>-18</ele>
        <time>2012-01-15T09:19:32Z</time>
      </trkpt>
      <trkpt lat="47.40655" lon="-0.39629">
        <ele>-20</ele>
        <time>2012-01-15T09:19:42Z</time>
      </trkpt>
      <trkpt lat="47.40617" lon="-0.39637">
        <ele>-11</ele>
        <time>2012-01-15T09:20:14Z</time>
      </trkpt>
      <trkpt lat="47.40596" lon="-0.39637">
        <ele>-10</ele>
        <time>2012-01-15T09:20:33Z</time>
      </trkpt>
      <trkpt lat="47.40576" lon="-0.39641">
        <ele>-12</ele>
        <time>2012-01-15T09:20:52Z</time>
      </trkpt>
      <trkpt lat="47.40556" lon="-0.39645">
        <ele>-10</ele>
        <time>2012-01-15T09:21:04Z</time>
      </trkpt>
      <trkpt lat="47.40544" lon="-0.3964">
        <ele>-17</ele>
        <time>2012-01-15T09:21:26Z</time>
      </trkpt>
      <trkpt lat="47.40535" lon="-0.39641">
        <ele>-17</ele>
        <time>2012-01-15T09:21:33Z</time>
      </trkpt>
      <trkpt lat="47.40463" lon="-0.39635">
        <ele>-37</ele>
        <time>2012-01-15T09:22:53Z</time>
      </trkpt>
      <trkpt lat="47.40425" lon="-0.39644">
        <ele>-42</ele>
        <time>2012-01-15T09:23:24Z</time>
      </trkpt>
      <trkpt lat="47.40415" lon="-0.39645">
        <ele>-42</ele>
        <time>2012-01-15T09:23:32Z</time>
      </trkpt>
      <trkpt lat="47.40397" lon="-0.39653">
        <ele>-42</ele>
        <time>2012-01-15T09:23:44Z</time>
      </trkpt>
      <trkpt lat="47.40387" lon="-0.39653">
        <ele>-41</ele>
        <time>2012-01-15T09:23:51Z</time>
      </trkpt>
      <trkpt lat="47.40368" lon="-0.39656">
        <ele>-38</ele>
        <time>2012-01-15T09:24:07Z</time>
      </trkpt>
      <trkpt lat="47.40339" lon="-0.39658">
        <ele>-35</ele>
        <time>2012-01-15T09:24:31Z</time>
      </trkpt>
      <trkpt lat="47.4033" lon="-0.39662">
        <ele>-35</ele>
        <time>2012-01-15T09:24:40Z</time>
      </trkpt>
      <trkpt lat="47.40314" lon="-0.39661">
        <ele>-37</ele>
        <time>2012-01-15T09:25:06Z</time>
      </trkpt>
      <trkpt lat="47.40305" lon="-0.39664">
        <ele>-37</ele>
        <time>2012-01-15T09:25:15Z</time>
      </trkpt>
      <trkpt lat="47.40296" lon="-0.39667">
        <ele>-34</ele>
        <time>2012-01-15T09:25:25Z</time>
      </trkpt>
      <trkpt lat="47.40277" lon="-0.39669">
        <ele>-34</ele>
        <time>2012-01-15T09:25:44Z</time>
      </trkpt>
      <trkpt lat="47.40268" lon="-0.39671">
        <ele>-34</ele>
        <time>2012-01-15T09:25:52Z</time>
      </trkpt>
      <trkpt lat="47.40258" lon="-0.39673">
        <ele>-35</ele>
        <time>2012-01-15T09:25:59Z</time>
      </trkpt>
      <trkpt lat="47.4025" lon="-0.39679">
        <ele>-35</ele>
        <time>2012-01-15T09:26:06Z</time>
      </trkpt>
      <trkpt lat="47.40231" lon="-0.39677">
        <ele>-32</ele>
        <time>2012-01-15T09:26:25Z</time>
      </trkpt>
      <trkpt lat="47.40221" lon="-0.39679">
        <ele>-33</ele>
        <time>2012-01-15T09:26:34Z</time>
      </trkpt>
      <trkpt lat="47.40201" lon="-0.3968">
        <ele>-31</ele>
        <time>2012-01-15T09:26:48Z</time>
      </trkpt>
      <trkpt lat="47.40174" lon="-0.39681">
        <ele>-36</ele>
        <time>2012-01-15T09:27:14Z</time>
      </trkpt>
      <trkpt lat="47.40163" lon="-0.39678">
        <ele>-34</ele>
        <time>2012-01-15T09:27:42Z</time>
      </trkpt>
      <trkpt lat="47.40125" lon="-0.3969">
        <ele>-30</ele>
        <time>2012-01-15T09:28:15Z</time>
      </trkpt>
      <trkpt lat="47.40116" lon="-0.39693">
        <ele>-29</ele>
        <time>2012-01-15T09:28:21Z</time>
      </trkpt>
      <trkpt lat="47.40098" lon="-0.39686">
        <ele>-29</ele>
        <time>2012-01-15T09:28:40Z</time>
      </trkpt>
      <trkpt lat="47.40091" lon="-0.39666">
        <ele>-30</ele>
        <time>2012-01-15T09:28:54Z</time>
      </trkpt>
      <trkpt lat="47.40087" lon="-0.39651">
        <ele>-31</ele>
        <time>2012-01-15T09:29:04Z</time>
      </trkpt>
      <trkpt lat="47.40078" lon="-0.39611">
        <ele>-30</ele>
        <time>2012-01-15T09:29:25Z</time>
      </trkpt>
      <trkpt lat="47.40079" lon="-0.39583">
        <ele>-32</ele>
        <time>2012-01-15T09:29:40Z</time>
      </trkpt>
      <trkpt lat="47.40075" lon="-0.39571">
        <ele>-32</ele>
        <time>2012-01-15T09:29:48Z</time>
      </trkpt>
      <trkpt lat="47.40079" lon="-0.39558">
        <ele>-32</ele>
        <time>2012-01-15T09:29:58Z</time>
      </trkpt>
      <trkpt lat="47.40075" lon="-0.39504">
        <ele>-29</ele>
        <time>2012-01-15T09:30:28Z</time>
      </trkpt>
      <trkpt lat="47.40072" lon="-0.39476">
        <ele>-27</ele>
        <time>2012-01-15T09:30:41Z</time>
      </trkpt>
      <trkpt lat="47.40056" lon="-0.39443">
        <ele>-32</ele>
        <time>2012-01-15T09:31:05Z</time>
      </trkpt>
      <trkpt lat="47.40047" lon="-0.39437">
        <ele>-32</ele>
        <time>2012-01-15T09:31:13Z</time>
      </trkpt>
      <trkpt lat="47.40037" lon="-0.39436">
        <ele>-30</ele>
        <time>2012-01-15T09:31:22Z</time>
      </trkpt>
      <trkpt lat="47.40028" lon="-0.39434">
        <ele>-29</ele>
        <time>2012-01-15T09:31:27Z</time>
      </trkpt>
      <trkpt lat="47.40019" lon="-0.39443">
        <ele>-29</ele>
        <time>2012-01-15T09:31:37Z</time>
      </trkpt>
      <trkpt lat="47.40015" lon="-0.39442">
        <ele>-28</ele>
        <time>2012-01-15T09:31:48Z</time>
      </trkpt>
      <trkpt lat="47.40004" lon="-0.3944">
        <ele>-27</ele>
        <time>2012-01-15T09:31:54Z</time>
      </trkpt>
      <trkpt lat="47.39995" lon="-0.39445">
        <ele>-27</ele>
        <time>2012-01-15T09:32:01Z</time>
      </trkpt>
      <trkpt lat="47.39957" lon="-0.39454">
        <ele>-29</ele>
        <time>2012-01-15T09:32:34Z</time>
      </trkpt>
      <trkpt lat="47.39919" lon="-0.39463">
        <ele>-28</ele>
        <time>2012-01-15T09:33:07Z</time>
      </trkpt>
      <trkpt lat="47.3991" lon="-0.39466">
        <ele>-27</ele>
        <time>2012-01-15T09:33:16Z</time>
      </trkpt>
      <trkpt lat="47.39872" lon="-0.3947">
        <ele>-23</ele>
        <time>2012-01-15T09:33:53Z</time>
      </trkpt>
      <trkpt lat="47.39866" lon="-0.39464">
        <ele>-24</ele>
        <time>2012-01-15T09:34:11Z</time>
      </trkpt>
      <trkpt lat="47.39837" lon="-0.3946">
        <ele>-22</ele>
        <time>2012-01-15T09:34:47Z</time>
      </trkpt>
      <trkpt lat="47.3981" lon="-0.39474">
        <ele>-22</ele>
        <time>2012-01-15T09:35:11Z</time>
      </trkpt>
      <trkpt lat="47.39777" lon="-0.39466">
        <ele>-24</ele>
        <time>2012-01-15T09:36:07Z</time>
      </trkpt>
      <trkpt lat="47.39768" lon="-0.39469">
        <ele>-24</ele>
        <time>2012-01-15T09:36:15Z</time>
      </trkpt>
      <trkpt lat="47.3975" lon="-0.39479">
        <ele>-22</ele>
        <time>2012-01-15T09:36:35Z</time>
      </trkpt>
      <trkpt lat="47.39636" lon="-0.39482">
        <ele>-9</ele>
        <time>2012-01-15T09:38:47Z</time>
      </trkpt>
      <trkpt lat="47.39627" lon="-0.39478">
        <ele>-8</ele>
        <time>2012-01-15T09:38:56Z</time>
      </trkpt>
      <trkpt lat="47.39623" lon="-0.3946">
        <ele>-8</ele>
        <time>2012-01-15T09:39:08Z</time>
      </trkpt>
      <trkpt lat="47.39614" lon="-0.39435">
        <ele>-6</ele>
        <time>2012-01-15T09:39:29Z</time>
      </trkpt>
      <trkpt lat="47.39521" lon="-0.39435">
        <ele>13</ele>
        <time>2012-01-15T09:41:49Z</time>
      </trkpt>
      <trkpt lat="47.39502" lon="-0.39431">
        <ele>14</ele>
        <time>2012-01-15T09:42:01Z</time>
      </trkpt>
      <trkpt lat="47.39492" lon="-0.39433">
        <ele>15</ele>
        <time>2012-01-15T09:42:10Z</time>
      </trkpt>
      <trkpt lat="47.39487" lon="-0.39429">
        <ele>16</ele>
        <time>2012-01-15T09:42:24Z</time>
      </trkpt>
      <trkpt lat="47.39493" lon="-0.39461">
        <ele>36</ele>
        <time>2012-01-15T09:45:09Z</time>
      </trkpt>
      <trkpt lat="47.39533" lon="-0.39533">
        <ele>36</ele>
        <time>2012-01-15T09:46:11Z</time>
      </trkpt>
      <trkpt lat="47.39549" lon="-0.39582">
        <ele>31</ele>
        <time>2012-01-15T09:46:46Z</time>
      </trkpt>
      <trkpt lat="47.39548" lon="-0.39628">
        <ele>25</ele>
        <time>2012-01-15T09:47:13Z</time>
      </trkpt>
      <trkpt lat="47.39544" lon="-0.3964">
        <ele>25</ele>
        <time>2012-01-15T09:47:22Z</time>
      </trkpt>
      <trkpt lat="47.39543" lon="-0.39686">
        <ele>20</ele>
        <time>2012-01-15T09:48:01Z</time>
      </trkpt>
      <trkpt lat="47.39539" lon="-0.39699">
        <ele>19</ele>
        <time>2012-01-15T09:48:09Z</time>
      </trkpt>
      <trkpt lat="47.39535" lon="-0.39722">
        <ele>19</ele>
        <time>2012-01-15T09:48:21Z</time>
      </trkpt>
      <trkpt lat="47.39537" lon="-0.39737">
        <ele>20</ele>
        <time>2012-01-15T09:48:31Z</time>
      </trkpt>
      <trkpt lat="47.39538" lon="-0.39751">
        <ele>19</ele>
        <time>2012-01-15T09:48:39Z</time>
      </trkpt>
      <trkpt lat="47.39536" lon="-0.39769">
        <ele>19</ele>
        <time>2012-01-15T09:48:49Z</time>
      </trkpt>
      <trkpt lat="47.39538" lon="-0.39785">
        <ele>20</ele>
        <time>2012-01-15T09:49:01Z</time>
      </trkpt>
      <trkpt lat="47.39544" lon="-0.39795">
        <ele>22</ele>
        <time>2012-01-15T09:49:10Z</time>
      </trkpt>
      <trkpt lat="47.39558" lon="-0.39845">
        <ele>26</ele>
        <time>2012-01-15T09:49:46Z</time>
      </trkpt>
      <trkpt lat="47.3956" lon="-0.39858">
        <ele>27</ele>
        <time>2012-01-15T09:49:52Z</time>
      </trkpt>
      <trkpt lat="47.39563" lon="-0.39869">
        <ele>26</ele>
        <time>2012-01-15T09:50:10Z</time>
      </trkpt>
      <trkpt lat="47.3958" lon="-0.3994">
        <ele>25</ele>
        <time>2012-01-15T09:50:44Z</time>
      </trkpt>
      <trkpt lat="47.39584" lon="-0.39951">
        <ele>24</ele>
        <time>2012-01-15T09:50:51Z</time>
      </trkpt>
      <trkpt lat="47.39587" lon="-0.39964">
        <ele>25</ele>
        <time>2012-01-15T09:50:59Z</time>
      </trkpt>
      <trkpt lat="47.39591" lon="-0.39977">
        <ele>25</ele>
        <time>2012-01-15T09:51:07Z</time>
      </trkpt>
      <trkpt lat="47.39596" lon="-0.39995">
        <ele>24</ele>
        <time>2012-01-15T09:51:19Z</time>
      </trkpt>
      <trkpt lat="47.39602" lon="-0.40045">
        <ele>35</ele>
        <time>2012-01-15T09:51:54Z</time>
      </trkpt>
      <trkpt lat="47.39607" lon="-0.40081">
        <ele>40</ele>
        <time>2012-01-15T09:52:19Z</time>
      </trkpt>
      <trkpt lat="47.39609" lon="-0.40095">
        <ele>41</ele>
        <time>2012-01-15T09:52:28Z</time>
      </trkpt>
      <trkpt lat="47.39614" lon="-0.40117">
        <ele>36</ele>
        <time>2012-01-15T09:52:44Z</time>
      </trkpt>
      <trkpt lat="47.39619" lon="-0.40134">
        <ele>35</ele>
        <time>2012-01-15T09:52:55Z</time>
      </trkpt>
      <trkpt lat="47.39637" lon="-0.40176">
        <ele>30</ele>
        <time>2012-01-15T09:53:31Z</time>
      </trkpt>
      <trkpt lat="47.39636" lon="-0.40186">
        <ele>29</ele>
        <time>2012-01-15T09:53:47Z</time>
      </trkpt>
      <trkpt lat="47.39651" lon="-0.40239">
        <ele>24</ele>
        <time>2012-01-15T09:54:17Z</time>
      </trkpt>
      <trkpt lat="47.39655" lon="-0.40253">
        <ele>25</ele>
        <time>2012-01-15T09:54:26Z</time>
      </trkpt>
      <trkpt lat="47.39668" lon="-0.40281">
        <ele>26</ele>
        <time>2012-01-15T09:57:10Z</time>
      </trkpt>
      <trkpt lat="47.39674" lon="-0.40298">
        <ele>24</ele>
        <time>2012-01-15T09:57:22Z</time>
      </trkpt>
      <trkpt lat="47.39678" lon="-0.40312">
        <ele>22</ele>
        <time>2012-01-15T09:57:29Z</time>
      </trkpt>
      <trkpt lat="47.39682" lon="-0.40324">
        <ele>23</ele>
        <time>2012-01-15T09:57:36Z</time>
      </trkpt>
      <trkpt lat="47.39685" lon="-0.40337">
        <ele>25</ele>
        <time>2012-01-15T09:57:45Z</time>
      </trkpt>
      <trkpt lat="47.39691" lon="-0.40348">
        <ele>22</ele>
        <time>2012-01-15T09:57:52Z</time>
      </trkpt>
      <trkpt lat="47.397" lon="-0.40376">
        <ele>24</ele>
        <time>2012-01-15T09:58:10Z</time>
      </trkpt>
      <trkpt lat="47.39718" lon="-0.40402">
        <ele>26</ele>
        <time>2012-01-15T09:58:35Z</time>
      </trkpt>
      <trkpt lat="47.3972" lon="-0.40416">
        <ele>27</ele>
        <time>2012-01-15T09:58:42Z</time>
      </trkpt>
      <trkpt lat="47.39729" lon="-0.40421">
        <ele>26</ele>
        <time>2012-01-15T09:58:50Z</time>
      </trkpt>
      <trkpt lat="47.39737" lon="-0.40428">
        <ele>27</ele>
        <time>2012-01-15T09:58:57Z</time>
      </trkpt>
      <trkpt lat="47.39745" lon="-0.40436">
        <ele>27</ele>
        <time>2012-01-15T09:59:06Z</time>
      </trkpt>
      <trkpt lat="47.39808" lon="-0.405">
        <ele>27</ele>
        <time>2012-01-15T10:00:30Z</time>
      </trkpt>
      <trkpt lat="47.39789" lon="-0.40494">
        <ele>22</ele>
        <time>2012-01-15T10:02:01Z</time>
      </trkpt>
      <trkpt lat="47.39825" lon="-0.40513">
        <ele>15</ele>
        <time>2012-01-15T10:03:11Z</time>
      </trkpt>
      <trkpt lat="47.39971" lon="-0.40588">
        <ele>-3</ele>
        <time>2012-01-15T10:06:12Z</time>
      </trkpt>
      <trkpt lat="47.39974" lon="-0.40602">
        <ele>-7</ele>
        <time>2012-01-15T10:06:21Z</time>
      </trkpt>
      <trkpt lat="47.39975" lon="-0.40609">
        <ele>-8</ele>
        <time>2012-01-15T10:06:32Z</time>
      </trkpt>
      <trkpt lat="47.39971" lon="-0.40621">
        <ele>-12</ele>
        <time>2012-01-15T10:06:37Z</time>
      </trkpt>
      <trkpt lat="47.39949" lon="-0.40622">
        <ele>-20</ele>
        <time>2012-01-15T10:07:47Z</time>
      </trkpt>
      <trkpt lat="47.39922" lon="-0.40623">
        <ele>-20</ele>
        <time>2012-01-15T10:08:22Z</time>
      </trkpt>
      <trkpt lat="47.39912" lon="-0.40624">
        <ele>-19</ele>
        <time>2012-01-15T10:08:32Z</time>
      </trkpt>
      <trkpt lat="47.39875" lon="-0.40629">
        <ele>-18</ele>
        <time>2012-01-15T10:09:06Z</time>
      </trkpt>
      <trkpt lat="47.39837" lon="-0.40656">
        <ele>-16</ele>
        <time>2012-01-15T10:09:41Z</time>
      </trkpt>
      <trkpt lat="47.39821" lon="-0.40669">
        <ele>-16</ele>
        <time>2012-01-15T10:10:06Z</time>
      </trkpt>
      <trkpt lat="47.39805" lon="-0.40729">
        <ele>-15</ele>
        <time>2012-01-15T10:10:56Z</time>
      </trkpt>
      <trkpt lat="47.39803" lon="-0.40742">
        <ele>-15</ele>
        <time>2012-01-15T10:11:01Z</time>
      </trkpt>
      <trkpt lat="47.398" lon="-0.40747">
        <ele>-15</ele>
        <time>2012-01-15T10:11:12Z</time>
      </trkpt>
      <trkpt lat="47.39789" lon="-0.40814">
        <ele>-8</ele>
        <time>2012-01-15T10:11:43Z</time>
      </trkpt>
      <trkpt lat="47.3977" lon="-0.40888">
        <ele>6</ele>
        <time>2012-01-15T10:12:39Z</time>
      </trkpt>
      <trkpt lat="47.3975" lon="-0.40928">
        <ele>12</ele>
        <time>2012-01-15T10:13:16Z</time>
      </trkpt>
      <trkpt lat="47.39721" lon="-0.4093">
        <ele>14</ele>
        <time>2012-01-15T10:13:57Z</time>
      </trkpt>
      <trkpt lat="47.39672" lon="-0.40923">
        <ele>24</ele>
        <time>2012-01-15T10:14:52Z</time>
      </trkpt>
      <trkpt lat="47.39665" lon="-0.40913">
        <ele>25</ele>
        <time>2012-01-15T10:15:03Z</time>
      </trkpt>
      <trkpt lat="47.39657" lon="-0.40906">
        <ele>25</ele>
        <time>2012-01-15T10:15:09Z</time>
      </trkpt>
      <trkpt lat="47.39635" lon="-0.40891">
        <ele>25</ele>
        <time>2012-01-15T10:15:47Z</time>
      </trkpt>
      <trkpt lat="47.39626" lon="-0.4089">
        <ele>26</ele>
        <time>2012-01-15T10:15:56Z</time>
      </trkpt>
      <trkpt lat="47.39598" lon="-0.40899">
        <ele>22</ele>
        <time>2012-01-15T10:16:15Z</time>
      </trkpt>
      <trkpt lat="47.39575" lon="-0.40905">
        <ele>15</ele>
        <time>2012-01-15T10:16:40Z</time>
      </trkpt>
      <trkpt lat="47.39565" lon="-0.40909">
        <ele>15</ele>
        <time>2012-01-15T10:16:49Z</time>
      </trkpt>
      <trkpt lat="47.39555" lon="-0.4091">
        <ele>13</ele>
        <time>2012-01-15T10:16:58Z</time>
      </trkpt>
      <trkpt lat="47.39537" lon="-0.40909">
        <ele>12</ele>
        <time>2012-01-15T10:17:13Z</time>
      </trkpt>
      <trkpt lat="47.39527" lon="-0.40909">
        <ele>12</ele>
        <time>2012-01-15T10:17:21Z</time>
      </trkpt>
      <trkpt lat="47.39518" lon="-0.40909">
        <ele>11</ele>
        <time>2012-01-15T10:17:30Z</time>
      </trkpt>
      <trkpt lat="47.39508" lon="-0.4091">
        <ele>12</ele>
        <time>2012-01-15T10:17:37Z</time>
      </trkpt>
      <trkpt lat="47.39498" lon="-0.40915">
        <ele>12</ele>
        <time>2012-01-15T10:17:48Z</time>
      </trkpt>
      <trkpt lat="47.39493" lon="-0.40926">
        <ele>12</ele>
        <time>2012-01-15T10:17:59Z</time>
      </trkpt>
      <trkpt lat="47.39464" lon="-0.40959">
        <ele>16</ele>
        <time>2012-01-15T10:18:38Z</time>
      </trkpt>
      <trkpt lat="47.39457" lon="-0.40976">
        <ele>16</ele>
        <time>2012-01-15T10:18:51Z</time>
      </trkpt>
      <trkpt lat="47.39455" lon="-0.40995">
        <ele>16</ele>
        <time>2012-01-15T10:19:06Z</time>
      </trkpt>
      <trkpt lat="47.39451" lon="-0.41022">
        <ele>19</ele>
        <time>2012-01-15T10:19:21Z</time>
      </trkpt>
      <trkpt lat="47.39447" lon="-0.41028">
        <ele>20</ele>
        <time>2012-01-15T10:19:35Z</time>
      </trkpt>
      <trkpt lat="47.39433" lon="-0.41027">
        <ele>20</ele>
        <time>2012-01-15T10:19:42Z</time>
      </trkpt>
      <trkpt lat="47.39422" lon="-0.41028">
        <ele>20</ele>
        <time>2012-01-15T10:19:51Z</time>
      </trkpt>
      <trkpt lat="47.39403" lon="-0.41025">
        <ele>21</ele>
        <time>2012-01-15T10:20:05Z</time>
      </trkpt>
      <trkpt lat="47.39385" lon="-0.41027">
        <ele>20</ele>
        <time>2012-01-15T10:20:22Z</time>
      </trkpt>
      <trkpt lat="47.39375" lon="-0.41025">
        <ele>21</ele>
        <time>2012-01-15T10:20:31Z</time>
      </trkpt>
      <trkpt lat="47.39366" lon="-0.41026">
        <ele>21</ele>
        <time>2012-01-15T10:20:38Z</time>
      </trkpt>
      <trkpt lat="47.39357" lon="-0.41029">
        <ele>23</ele>
        <time>2012-01-15T10:20:48Z</time>
      </trkpt>
      <trkpt lat="47.39318" lon="-0.41025">
        <ele>36</ele>
        <time>2012-01-15T10:21:21Z</time>
      </trkpt>
      <trkpt lat="47.39308" lon="-0.41021">
        <ele>36</ele>
        <time>2012-01-15T10:21:28Z</time>
      </trkpt>
      <trkpt lat="47.39299" lon="-0.41019">
        <ele>38</ele>
        <time>2012-01-15T10:21:35Z</time>
      </trkpt>
      <trkpt lat="47.39296" lon="-0.41004">
        <ele>38</ele>
        <time>2012-01-15T10:21:44Z</time>
      </trkpt>
      <trkpt lat="47.39299" lon="-0.40991">
        <ele>38</ele>
        <time>2012-01-15T10:21:52Z</time>
      </trkpt>
      <trkpt lat="47.39297" lon="-0.40977">
        <ele>37</ele>
        <time>2012-01-15T10:22:05Z</time>
      </trkpt>
      <trkpt lat="47.39295" lon="-0.40964">
        <ele>39</ele>
        <time>2012-01-15T10:22:12Z</time>
      </trkpt>
      <trkpt lat="47.39293" lon="-0.40947">
        <ele>38</ele>
        <time>2012-01-15T10:22:25Z</time>
      </trkpt>
      <trkpt lat="47.39291" lon="-0.40934">
        <ele>34</ele>
        <time>2012-01-15T10:22:33Z</time>
      </trkpt>
      <trkpt lat="47.39284" lon="-0.40875">
        <ele>26</ele>
        <time>2012-01-15T10:23:13Z</time>
      </trkpt>
      <trkpt lat="47.39283" lon="-0.40826">
        <ele>24</ele>
        <time>2012-01-15T10:23:56Z</time>
      </trkpt>
      <trkpt lat="47.39281" lon="-0.40807">
        <ele>23</ele>
        <time>2012-01-15T10:23:59Z</time>
      </trkpt>
      <trkpt lat="47.3928" lon="-0.40779">
        <ele>26</ele>
        <time>2012-01-15T10:24:18Z</time>
      </trkpt>
      <trkpt lat="47.39274" lon="-0.40753">
        <ele>24</ele>
        <time>2012-01-15T10:24:31Z</time>
      </trkpt>
      <trkpt lat="47.39268" lon="-0.40741">
        <ele>24</ele>
        <time>2012-01-15T10:24:43Z</time>
      </trkpt>
      <trkpt lat="47.39262" lon="-0.40727">
        <ele>24</ele>
        <time>2012-01-15T10:24:55Z</time>
      </trkpt>
      <trkpt lat="47.39256" lon="-0.40716">
        <ele>25</ele>
        <time>2012-01-15T10:25:02Z</time>
      </trkpt>
      <trkpt lat="47.39253" lon="-0.40703">
        <ele>24</ele>
        <time>2012-01-15T10:25:09Z</time>
      </trkpt>
      <trkpt lat="47.39246" lon="-0.40692">
        <ele>25</ele>
        <time>2012-01-15T10:25:14Z</time>
      </trkpt>
      <trkpt lat="47.39245" lon="-0.40679">
        <ele>22</ele>
        <time>2012-01-15T10:25:22Z</time>
      </trkpt>
      <trkpt lat="47.39241" lon="-0.40666">
        <ele>22</ele>
        <time>2012-01-15T10:25:37Z</time>
      </trkpt>
      <trkpt lat="47.39235" lon="-0.40655">
        <ele>19</ele>
        <time>2012-01-15T10:25:47Z</time>
      </trkpt>
      <trkpt lat="47.39229" lon="-0.40643">
        <ele>18</ele>
        <time>2012-01-15T10:25:55Z</time>
      </trkpt>
      <trkpt lat="47.39219" lon="-0.40618">
        <ele>25</ele>
        <time>2012-01-15T10:26:13Z</time>
      </trkpt>
      <trkpt lat="47.39214" lon="-0.40606">
        <ele>25</ele>
        <time>2012-01-15T10:26:22Z</time>
      </trkpt>
      <trkpt lat="47.39207" lon="-0.40591">
        <ele>26</ele>
        <time>2012-01-15T10:26:33Z</time>
      </trkpt>
      <trkpt lat="47.39205" lon="-0.40576">
        <ele>25</ele>
        <time>2012-01-15T10:26:46Z</time>
      </trkpt>
      <trkpt lat="47.39199" lon="-0.40566">
        <ele>26</ele>
        <time>2012-01-15T10:26:55Z</time>
      </trkpt>
      <trkpt lat="47.39196" lon="-0.40552">
        <ele>28</ele>
        <time>2012-01-15T10:27:01Z</time>
      </trkpt>
      <trkpt lat="47.39204" lon="-0.4054">
        <ele>24</ele>
        <time>2012-01-15T10:27:50Z</time>
      </trkpt>
      <trkpt lat="47.39215" lon="-0.40541">
        <ele>20</ele>
        <time>2012-01-15T10:28:21Z</time>
      </trkpt>
      <trkpt lat="47.39224" lon="-0.40537">
        <ele>19</ele>
        <time>2012-01-15T10:28:28Z</time>
      </trkpt>
      <trkpt lat="47.39233" lon="-0.40545">
        <ele>20</ele>
        <time>2012-01-15T10:28:43Z</time>
      </trkpt>
      <trkpt lat="47.39241" lon="-0.40542">
        <ele>21</ele>
        <time>2012-01-15T10:29:02Z</time>
      </trkpt>
      <trkpt lat="47.3929" lon="-0.40536">
        <ele>21</ele>
        <time>2012-01-15T10:30:22Z</time>
      </trkpt>
      <trkpt lat="47.39298" lon="-0.40528">
        <ele>21</ele>
        <time>2012-01-15T10:30:31Z</time>
      </trkpt>
      <trkpt lat="47.39304" lon="-0.40514">
        <ele>23</ele>
        <time>2012-01-15T10:30:56Z</time>
      </trkpt>
      <trkpt lat="47.39296" lon="-0.40473">
        <ele>27</ele>
        <time>2012-01-15T10:31:30Z</time>
      </trkpt>
      <trkpt lat="47.39297" lon="-0.40459">
        <ele>27</ele>
        <time>2012-01-15T10:31:39Z</time>
      </trkpt>
      <trkpt lat="47.393" lon="-0.40454">
        <ele>25</ele>
        <time>2012-01-15T10:31:50Z</time>
      </trkpt>
      <trkpt lat="47.39304" lon="-0.40442">
        <ele>26</ele>
        <time>2012-01-15T10:32:25Z</time>
      </trkpt>
      <trkpt lat="47.39305" lon="-0.40423">
        <ele>26</ele>
        <time>2012-01-15T10:32:37Z</time>
      </trkpt>
      <trkpt lat="47.39313" lon="-0.40416">
        <ele>25</ele>
        <time>2012-01-15T10:32:46Z</time>
      </trkpt>
      <trkpt lat="47.39315" lon="-0.40402">
        <ele>26</ele>
        <time>2012-01-15T10:32:53Z</time>
      </trkpt>
      <trkpt lat="47.39316" lon="-0.40383">
        <ele>25</ele>
        <time>2012-01-15T10:33:58Z</time>
      </trkpt>
      <trkpt lat="47.39316" lon="-0.40365">
        <ele>25</ele>
        <time>2012-01-15T10:34:12Z</time>
      </trkpt>
      <trkpt lat="47.39321" lon="-0.40347">
        <ele>26</ele>
        <time>2012-01-15T10:34:25Z</time>
      </trkpt>
      <trkpt lat="47.39326" lon="-0.40335">
        <ele>25</ele>
        <time>2012-01-15T10:34:35Z</time>
      </trkpt>
      <trkpt lat="47.39325" lon="-0.4032">
        <ele>24</ele>
        <time>2012-01-15T10:34:42Z</time>
      </trkpt>
      <trkpt lat="47.39324" lon="-0.40306">
        <ele>25</ele>
        <time>2012-01-15T10:34:47Z</time>
      </trkpt>
      <trkpt lat="47.39324" lon="-0.40291">
        <ele>25</ele>
        <time>2012-01-15T10:34:56Z</time>
      </trkpt>
      <trkpt lat="47.39323" lon="-0.40277">
        <ele>25</ele>
        <time>2012-01-15T10:35:05Z</time>
      </trkpt>
      <trkpt lat="47.39323" lon="-0.40268">
        <ele>24</ele>
        <time>2012-01-15T10:35:19Z</time>
      </trkpt>
      <trkpt lat="47.39325" lon="-0.40224">
        <ele>27</ele>
        <time>2012-01-15T10:35:39Z</time>
      </trkpt>
      <trkpt lat="47.39323" lon="-0.40175">
        <ele>27</ele>
        <time>2012-01-15T10:36:07Z</time>
      </trkpt>
      <trkpt lat="47.39329" lon="-0.40164">
        <ele>27</ele>
        <time>2012-01-15T10:36:14Z</time>
      </trkpt>
      <trkpt lat="47.39331" lon="-0.40137">
        <ele>27</ele>
        <time>2012-01-15T10:36:27Z</time>
      </trkpt>
      <trkpt lat="47.39335" lon="-0.40108">
        <ele>26</ele>
        <time>2012-01-15T10:36:42Z</time>
      </trkpt>
      <trkpt lat="47.39337" lon="-0.4008">
        <ele>26</ele>
        <time>2012-01-15T10:36:58Z</time>
      </trkpt>
      <trkpt lat="47.39346" lon="-0.40036">
        <ele>23</ele>
        <time>2012-01-15T10:37:27Z</time>
      </trkpt>
      <trkpt lat="47.39342" lon="-0.40024">
        <ele>25</ele>
        <time>2012-01-15T10:37:33Z</time>
      </trkpt>
      <trkpt lat="47.3934" lon="-0.4001">
        <ele>22</ele>
        <time>2012-01-15T10:37:42Z</time>
      </trkpt>
      <trkpt lat="47.39324" lon="-0.39965">
        <ele>24</ele>
        <time>2012-01-15T10:38:12Z</time>
      </trkpt>
      <trkpt lat="47.39319" lon="-0.39946">
        <ele>24</ele>
        <time>2012-01-15T10:38:24Z</time>
      </trkpt>
      <trkpt lat="47.39309" lon="-0.39921">
        <ele>24</ele>
        <time>2012-01-15T10:38:39Z</time>
      </trkpt>
      <trkpt lat="47.39305" lon="-0.39908">
        <ele>26</ele>
        <time>2012-01-15T10:38:46Z</time>
      </trkpt>
      <trkpt lat="47.39301" lon="-0.39895">
        <ele>26</ele>
        <time>2012-01-15T10:38:54Z</time>
      </trkpt>
      <trkpt lat="47.39297" lon="-0.39881">
        <ele>26</ele>
        <time>2012-01-15T10:39:00Z</time>
      </trkpt>
      <trkpt lat="47.39286" lon="-0.39858">
        <ele>29</ele>
        <time>2012-01-15T10:39:15Z</time>
      </trkpt>
      <trkpt lat="47.39282" lon="-0.39846">
        <ele>27</ele>
        <time>2012-01-15T10:39:21Z</time>
      </trkpt>
      <trkpt lat="47.39282" lon="-0.39832">
        <ele>27</ele>
        <time>2012-01-15T10:39:28Z</time>
      </trkpt>
      <trkpt lat="47.39277" lon="-0.39816">
        <ele>25</ele>
        <time>2012-01-15T10:39:40Z</time>
      </trkpt>
      <trkpt lat="47.39278" lon="-0.3981">
        <ele>25</ele>
        <time>2012-01-15T10:39:51Z</time>
      </trkpt>
      <trkpt lat="47.39276" lon="-0.39756">
        <ele>28</ele>
        <time>2012-01-15T10:40:24Z</time>
      </trkpt>
      <trkpt lat="47.39274" lon="-0.3974">
        <ele>28</ele>
        <time>2012-01-15T10:40:31Z</time>
      </trkpt>
      <trkpt lat="47.39271" lon="-0.39727">
        <ele>27</ele>
        <time>2012-01-15T10:40:37Z</time>
      </trkpt>
      <trkpt lat="47.39263" lon="-0.39695">
        <ele>29</ele>
        <time>2012-01-15T10:40:54Z</time>
      </trkpt>
      <trkpt lat="47.3926" lon="-0.39682">
        <ele>28</ele>
        <time>2012-01-15T10:41:01Z</time>
      </trkpt>
      <trkpt lat="47.3926" lon="-0.39669">
        <ele>28</ele>
        <time>2012-01-15T10:41:07Z</time>
      </trkpt>
      <trkpt lat="47.39258" lon="-0.39655">
        <ele>31</ele>
        <time>2012-01-15T10:41:14Z</time>
      </trkpt>
      <trkpt lat="47.39252" lon="-0.39644">
        <ele>32</ele>
        <time>2012-01-15T10:41:20Z</time>
      </trkpt>
      <trkpt lat="47.39249" lon="-0.39631">
        <ele>32</ele>
        <time>2012-01-15T10:41:28Z</time>
      </trkpt>
      <trkpt lat="47.39244" lon="-0.39619">
        <ele>32</ele>
        <time>2012-01-15T10:41:35Z</time>
      </trkpt>
      <trkpt lat="47.3924" lon="-0.39606">
        <ele>30</ele>
        <time>2012-01-15T10:41:43Z</time>
      </trkpt>
      <trkpt lat="47.39237" lon="-0.39593">
        <ele>31</ele>
        <time>2012-01-15T10:41:51Z</time>
      </trkpt>
      <trkpt lat="47.39232" lon="-0.39582">
        <ele>32</ele>
        <time>2012-01-15T10:42:00Z</time>
      </trkpt>
      <trkpt lat="47.39231" lon="-0.39567">
        <ele>33</ele>
        <time>2012-01-15T10:42:06Z</time>
      </trkpt>
      <trkpt lat="47.39227" lon="-0.39549">
        <ele>31</ele>
        <time>2012-01-15T10:42:33Z</time>
      </trkpt>
      <trkpt lat="47.39227" lon="-0.39535">
        <ele>33</ele>
        <time>2012-01-15T10:42:42Z</time>
      </trkpt>
      <trkpt lat="47.39217" lon="-0.39509">
        <ele>30</ele>
        <time>2012-01-15T10:42:53Z</time>
      </trkpt>
      <trkpt lat="47.39211" lon="-0.39498">
        <ele>32</ele>
        <time>2012-01-15T10:43:01Z</time>
      </trkpt>
      <trkpt lat="47.39208" lon="-0.39486">
        <ele>31</ele>
        <time>2012-01-15T10:43:08Z</time>
      </trkpt>
      <trkpt lat="47.39206" lon="-0.39473">
        <ele>30</ele>
        <time>2012-01-15T10:43:14Z</time>
      </trkpt>
      <trkpt lat="47.39203" lon="-0.3946">
        <ele>31</ele>
        <time>2012-01-15T10:43:21Z</time>
      </trkpt>
      <trkpt lat="47.392" lon="-0.39447">
        <ele>29</ele>
        <time>2012-01-15T10:43:29Z</time>
      </trkpt>
      <trkpt lat="47.39202" lon="-0.39434">
        <ele>27</ele>
        <time>2012-01-15T10:43:38Z</time>
      </trkpt>
      <trkpt lat="47.39209" lon="-0.39432">
        <ele>29</ele>
        <time>2012-01-15T10:43:53Z</time>
      </trkpt>
      <trkpt lat="47.39218" lon="-0.39433">
        <ele>25</ele>
        <time>2012-01-15T10:45:35Z</time>
      </trkpt>
      <trkpt lat="47.39228" lon="-0.39434">
        <ele>26</ele>
        <time>2012-01-15T10:45:43Z</time>
      </trkpt>
      <trkpt lat="47.39237" lon="-0.39432">
        <ele>23</ele>
        <time>2012-01-15T10:45:53Z</time>
      </trkpt>
      <trkpt lat="47.39248" lon="-0.39428">
        <ele>23</ele>
        <time>2012-01-15T10:46:02Z</time>
      </trkpt>
      <trkpt lat="47.39255" lon="-0.39419">
        <ele>22</ele>
        <time>2012-01-15T10:46:09Z</time>
      </trkpt>
      <trkpt lat="47.39252" lon="-0.39406">
        <ele>23</ele>
        <time>2012-01-15T10:46:17Z</time>
      </trkpt>
      <trkpt lat="47.39238" lon="-0.39347">
        <ele>27</ele>
        <time>2012-01-15T10:46:53Z</time>
      </trkpt>
      <trkpt lat="47.39233" lon="-0.39336">
        <ele>26</ele>
        <time>2012-01-15T10:47:00Z</time>
      </trkpt>
      <trkpt lat="47.39227" lon="-0.39325">
        <ele>28</ele>
        <time>2012-01-15T10:47:08Z</time>
      </trkpt>
      <trkpt lat="47.39214" lon="-0.39266">
        <ele>30</ele>
        <time>2012-01-15T10:47:41Z</time>
      </trkpt>
      <trkpt lat="47.39209" lon="-0.39211">
        <ele>34</ele>
        <time>2012-01-15T10:48:12Z</time>
      </trkpt>
      <trkpt lat="47.39209" lon="-0.39197">
        <ele>34</ele>
        <time>2012-01-15T10:48:18Z</time>
      </trkpt>
      <trkpt lat="47.39207" lon="-0.39183">
        <ele>35</ele>
        <time>2012-01-15T10:48:25Z</time>
      </trkpt>
      <trkpt lat="47.39209" lon="-0.39177">
        <ele>35</ele>
        <time>2012-01-15T10:48:36Z</time>
      </trkpt>
      <trkpt lat="47.39209" lon="-0.39153">
        <ele>35</ele>
        <time>2012-01-15T10:48:47Z</time>
      </trkpt>
      <trkpt lat="47.39208" lon="-0.39125">
        <ele>31</ele>
        <time>2012-01-15T10:49:03Z</time>
      </trkpt>
      <trkpt lat="47.39204" lon="-0.39107">
        <ele>31</ele>
        <time>2012-01-15T10:49:12Z</time>
      </trkpt>
      <trkpt lat="47.39205" lon="-0.39092">
        <ele>31</ele>
        <time>2012-01-15T10:49:20Z</time>
      </trkpt>
      <trkpt lat="47.39205" lon="-0.39077">
        <ele>32</ele>
        <time>2012-01-15T10:49:29Z</time>
      </trkpt>
      <trkpt lat="47.39205" lon="-0.39062">
        <ele>32</ele>
        <time>2012-01-15T10:49:39Z</time>
      </trkpt>
      <trkpt lat="47.392" lon="-0.39034">
        <ele>30</ele>
        <time>2012-01-15T10:49:55Z</time>
      </trkpt>
      <trkpt lat="47.39194" lon="-0.38994">
        <ele>37</ele>
        <time>2012-01-15T10:50:17Z</time>
      </trkpt>
      <trkpt lat="47.39189" lon="-0.38982">
        <ele>38</ele>
        <time>2012-01-15T10:50:23Z</time>
      </trkpt>
      <trkpt lat="47.39185" lon="-0.38969">
        <ele>39</ele>
        <time>2012-01-15T10:50:32Z</time>
      </trkpt>
      <trkpt lat="47.39192" lon="-0.3896">
        <ele>39</ele>
        <time>2012-01-15T10:50:41Z</time>
      </trkpt>
      <trkpt lat="47.39187" lon="-0.38945">
        <ele>41</ele>
        <time>2012-01-15T10:50:49Z</time>
      </trkpt>
      <trkpt lat="47.39181" lon="-0.38934">
        <ele>43</ele>
        <time>2012-01-15T10:50:55Z</time>
      </trkpt>
      <trkpt lat="47.39182" lon="-0.38917">
        <ele>46</ele>
        <time>2012-01-15T10:51:06Z</time>
      </trkpt>
      <trkpt lat="47.39178" lon="-0.38905">
        <ele>46</ele>
        <time>2012-01-15T10:51:12Z</time>
      </trkpt>
      <trkpt lat="47.3917" lon="-0.38898">
        <ele>45</ele>
        <time>2012-01-15T10:51:19Z</time>
      </trkpt>
      <trkpt lat="47.39165" lon="-0.38886">
        <ele>42</ele>
        <time>2012-01-15T10:51:26Z</time>
      </trkpt>
      <trkpt lat="47.39158" lon="-0.38876">
        <ele>41</ele>
        <time>2012-01-15T10:51:34Z</time>
      </trkpt>
      <trkpt lat="47.39157" lon="-0.38861">
        <ele>40</ele>
        <time>2012-01-15T10:51:45Z</time>
      </trkpt>
      <trkpt lat="47.3915" lon="-0.3885">
        <ele>40</ele>
        <time>2012-01-15T10:51:53Z</time>
      </trkpt>
      <trkpt lat="47.39149" lon="-0.38836">
        <ele>40</ele>
        <time>2012-01-15T10:52:00Z</time>
      </trkpt>
      <trkpt lat="47.39142" lon="-0.38826">
        <ele>39</ele>
        <time>2012-01-15T10:52:09Z</time>
      </trkpt>
      <trkpt lat="47.39141" lon="-0.38813">
        <ele>37</ele>
        <time>2012-01-15T10:52:15Z</time>
      </trkpt>
      <trkpt lat="47.39135" lon="-0.38801">
        <ele>33</ele>
        <time>2012-01-15T10:52:24Z</time>
      </trkpt>
      <trkpt lat="47.39127" lon="-0.38795">
        <ele>28</ele>
        <time>2012-01-15T10:52:33Z</time>
      </trkpt>
      <trkpt lat="47.39118" lon="-0.388">
        <ele>24</ele>
        <time>2012-01-15T10:52:42Z</time>
      </trkpt>
      <trkpt lat="47.39099" lon="-0.388">
        <ele>20</ele>
        <time>2012-01-15T10:52:59Z</time>
      </trkpt>
      <trkpt lat="47.39092" lon="-0.38791">
        <ele>18</ele>
        <time>2012-01-15T10:53:10Z</time>
      </trkpt>
      <trkpt lat="47.39074" lon="-0.3877">
        <ele>17</ele>
        <time>2012-01-15T10:53:32Z</time>
      </trkpt>
      <trkpt lat="47.39066" lon="-0.38763">
        <ele>17</ele>
        <time>2012-01-15T10:53:39Z</time>
      </trkpt>
      <trkpt lat="47.39056" lon="-0.38761">
        <ele>17</ele>
        <time>2012-01-15T10:53:46Z</time>
      </trkpt>
      <trkpt lat="47.39037" lon="-0.38757">
        <ele>17</ele>
        <time>2012-01-15T10:54:01Z</time>
      </trkpt>
      <trkpt lat="47.3902" lon="-0.38758">
        <ele>16</ele>
        <time>2012-01-15T10:54:25Z</time>
      </trkpt>
      <trkpt lat="47.38995" lon="-0.38767">
        <ele>11</ele>
        <time>2012-01-15T10:54:48Z</time>
      </trkpt>
      <trkpt lat="47.38985" lon="-0.38765">
        <ele>11</ele>
        <time>2012-01-15T10:54:55Z</time>
      </trkpt>
      <trkpt lat="47.3897" lon="-0.38765">
        <ele>14</ele>
        <time>2012-01-15T10:55:09Z</time>
      </trkpt>
      <trkpt lat="47.3896" lon="-0.38764">
        <ele>14</ele>
        <time>2012-01-15T10:55:17Z</time>
      </trkpt>
      <trkpt lat="47.38941" lon="-0.38764">
        <ele>15</ele>
        <time>2012-01-15T10:55:32Z</time>
      </trkpt>
      <trkpt lat="47.38929" lon="-0.38767">
        <ele>20</ele>
        <time>2012-01-15T10:55:48Z</time>
      </trkpt>
      <trkpt lat="47.38919" lon="-0.38764">
        <ele>21</ele>
        <time>2012-01-15T10:55:54Z</time>
      </trkpt>
      <trkpt lat="47.38882" lon="-0.38762">
        <ele>27</ele>
        <time>2012-01-15T10:56:27Z</time>
      </trkpt>
      <trkpt lat="47.38888" lon="-0.3876">
        <ele>21</ele>
        <time>2012-01-15T11:02:45Z</time>
      </trkpt>
      <trkpt lat="47.38899" lon="-0.38759">
        <ele>21</ele>
        <time>2012-01-15T11:02:52Z</time>
      </trkpt>
      <trkpt lat="47.38938" lon="-0.38756">
        <ele>23</ele>
        <time>2012-01-15T11:03:34Z</time>
      </trkpt>
      <trkpt lat="47.38947" lon="-0.38751">
        <ele>21</ele>
        <time>2012-01-15T11:03:38Z</time>
      </trkpt>
      <trkpt lat="47.38955" lon="-0.38759">
        <ele>20</ele>
        <time>2012-01-15T11:03:43Z</time>
      </trkpt>
      <trkpt lat="47.38964" lon="-0.38758">
        <ele>19</ele>
        <time>2012-01-15T11:03:48Z</time>
      </trkpt>
      <trkpt lat="47.38973" lon="-0.38754">
        <ele>17</ele>
        <time>2012-01-15T11:03:59Z</time>
      </trkpt>
      <trkpt lat="47.38982" lon="-0.38753">
        <ele>22</ele>
        <time>2012-01-15T11:04:06Z</time>
      </trkpt>
      <trkpt lat="47.39" lon="-0.38759">
        <ele>22</ele>
        <time>2012-01-15T11:04:23Z</time>
      </trkpt>
      <trkpt lat="47.39013" lon="-0.38756">
        <ele>18</ele>
        <time>2012-01-15T11:04:38Z</time>
      </trkpt>
      <trkpt lat="47.39027" lon="-0.38756">
        <ele>21</ele>
        <time>2012-01-15T11:04:48Z</time>
      </trkpt>
      <trkpt lat="47.39036" lon="-0.38754">
        <ele>16</ele>
        <time>2012-01-15T11:04:58Z</time>
      </trkpt>
      <trkpt lat="47.39045" lon="-0.38754">
        <ele>16</ele>
        <time>2012-01-15T11:05:06Z</time>
      </trkpt>
      <trkpt lat="47.3904" lon="-0.38737">
        <ele>12</ele>
        <time>2012-01-15T11:05:18Z</time>
      </trkpt>
      <trkpt lat="47.39036" lon="-0.38723">
        <ele>11</ele>
        <time>2012-01-15T11:05:29Z</time>
      </trkpt>
      <trkpt lat="47.39038" lon="-0.38708">
        <ele>11</ele>
        <time>2012-01-15T11:05:38Z</time>
      </trkpt>
      <trkpt lat="47.39036" lon="-0.38695">
        <ele>11</ele>
        <time>2012-01-15T11:05:47Z</time>
      </trkpt>
      <trkpt lat="47.39038" lon="-0.38681">
        <ele>12</ele>
        <time>2012-01-15T11:05:54Z</time>
      </trkpt>
      <trkpt lat="47.39035" lon="-0.38669">
        <ele>14</ele>
        <time>2012-01-15T11:06:01Z</time>
      </trkpt>
      <trkpt lat="47.39034" lon="-0.38655">
        <ele>14</ele>
        <time>2012-01-15T11:06:09Z</time>
      </trkpt>
      <trkpt lat="47.39027" lon="-0.38645">
        <ele>16</ele>
        <time>2012-01-15T11:06:17Z</time>
      </trkpt>
      <trkpt lat="47.39022" lon="-0.38632">
        <ele>16</ele>
        <time>2012-01-15T11:06:26Z</time>
      </trkpt>
      <trkpt lat="47.3901" lon="-0.38594">
        <ele>18</ele>
        <time>2012-01-15T11:06:53Z</time>
      </trkpt>
      <trkpt lat="47.38993" lon="-0.38552">
        <ele>23</ele>
        <time>2012-01-15T11:07:26Z</time>
      </trkpt>
      <trkpt lat="47.38989" lon="-0.38538">
        <ele>22</ele>
        <time>2012-01-15T11:07:35Z</time>
      </trkpt>
      <trkpt lat="47.38987" lon="-0.38523">
        <ele>24</ele>
        <time>2012-01-15T11:07:42Z</time>
      </trkpt>
      <trkpt lat="47.38977" lon="-0.38497">
        <ele>24</ele>
        <time>2012-01-15T11:08:00Z</time>
      </trkpt>
      <trkpt lat="47.38972" lon="-0.38484">
        <ele>24</ele>
        <time>2012-01-15T11:08:07Z</time>
      </trkpt>
      <trkpt lat="47.3897" lon="-0.3847">
        <ele>23</ele>
        <time>2012-01-15T11:08:15Z</time>
      </trkpt>
      <trkpt lat="47.38964" lon="-0.38443">
        <ele>22</ele>
        <time>2012-01-15T11:08:29Z</time>
      </trkpt>
      <trkpt lat="47.38947" lon="-0.38385">
        <ele>24</ele>
        <time>2012-01-15T11:09:14Z</time>
      </trkpt>
      <trkpt lat="47.38944" lon="-0.38333">
        <ele>25</ele>
        <time>2012-01-15T11:09:50Z</time>
      </trkpt>
      <trkpt lat="47.38952" lon="-0.38327">
        <ele>24</ele>
        <time>2012-01-15T11:09:55Z</time>
      </trkpt>
      <trkpt lat="47.3896" lon="-0.38321">
        <ele>23</ele>
        <time>2012-01-15T11:10:02Z</time>
      </trkpt>
      <trkpt lat="47.38994" lon="-0.38278">
        <ele>16</ele>
        <time>2012-01-15T11:10:51Z</time>
      </trkpt>
      <trkpt lat="47.39026" lon="-0.38249">
        <ele>11</ele>
        <time>2012-01-15T11:11:27Z</time>
      </trkpt>
      <trkpt lat="47.39034" lon="-0.38232">
        <ele>9</ele>
        <time>2012-01-15T11:11:48Z</time>
      </trkpt>
      <trkpt lat="47.3908" lon="-0.38156">
        <ele>7</ele>
        <time>2012-01-15T11:12:48Z</time>
      </trkpt>
      <trkpt lat="47.3908" lon="-0.38143">
        <ele>7</ele>
        <time>2012-01-15T11:13:08Z</time>
      </trkpt>
      <trkpt lat="47.39103" lon="-0.38108">
        <ele>6</ele>
        <time>2012-01-15T11:13:23Z</time>
      </trkpt>
      <trkpt lat="47.39113" lon="-0.38109">
        <ele>5</ele>
        <time>2012-01-15T11:13:31Z</time>
      </trkpt>
      <trkpt lat="47.39123" lon="-0.38104">
        <ele>4</ele>
        <time>2012-01-15T11:13:38Z</time>
      </trkpt>
      <trkpt lat="47.39146" lon="-0.38104">
        <ele>67.3</ele>
        <time>2012-01-15T11:14:00Z</time>
      </trkpt>
      <trkpt lat="47.39241" lon="-0.38107">
        <ele>12</ele>
        <time>2012-01-15T11:15:32Z</time>
      </trkpt>
      <trkpt lat="47.39255" lon="-0.38111">
        <ele>9</ele>
        <time>2012-01-15T11:15:49Z</time>
      </trkpt>
      <trkpt lat="47.39265" lon="-0.38112">
        <ele>10</ele>
        <time>2012-01-15T11:15:58Z</time>
      </trkpt>
      <trkpt lat="47.39274" lon="-0.38116">
        <ele>10</ele>
        <time>2012-01-15T11:16:05Z</time>
      </trkpt>
      <trkpt lat="47.39307" lon="-0.38123">
        <ele>16</ele>
        <time>2012-01-15T11:16:32Z</time>
      </trkpt>
      <trkpt lat="47.39317" lon="-0.38123">
        <ele>16</ele>
        <time>2012-01-15T11:16:46Z</time>
      </trkpt>
      <trkpt lat="47.39306" lon="-0.38108">
        <ele>12</ele>
        <time>2012-01-15T11:17:06Z</time>
      </trkpt>
      <trkpt lat="47.3931" lon="-0.38054">
        <ele>7</ele>
        <time>2012-01-15T11:17:46Z</time>
      </trkpt>
      <trkpt lat="47.3932" lon="-0.37998">
        <ele>14</ele>
        <time>2012-01-15T11:18:22Z</time>
      </trkpt>
      <trkpt lat="47.39326" lon="-0.37964">
        <ele>14</ele>
        <time>2012-01-15T11:18:45Z</time>
      </trkpt>
      <trkpt lat="47.39328" lon="-0.37949">
        <ele>18</ele>
        <time>2012-01-15T11:18:53Z</time>
      </trkpt>
      <trkpt lat="47.39329" lon="-0.37935">
        <ele>17</ele>
        <time>2012-01-15T11:19:01Z</time>
      </trkpt>
      <trkpt lat="47.39331" lon="-0.37922">
        <ele>16</ele>
        <time>2012-01-15T11:19:09Z</time>
      </trkpt>
      <trkpt lat="47.3934" lon="-0.37921">
        <ele>16</ele>
        <time>2012-01-15T11:19:16Z</time>
      </trkpt>
      <trkpt lat="47.39349" lon="-0.37915">
        <ele>17</ele>
        <time>2012-01-15T11:19:25Z</time>
      </trkpt>
      <trkpt lat="47.39359" lon="-0.37915">
        <ele>16</ele>
        <time>2012-01-15T11:19:35Z</time>
      </trkpt>
      <trkpt lat="47.3936" lon="-0.37916">
        <ele>16</ele>
        <time>2012-01-15T11:19:55Z</time>
      </trkpt>
      <trkpt lat="47.394" lon="-0.379">
        <ele>15</ele>
        <time>2012-01-15T11:20:41Z</time>
      </trkpt>
      <trkpt lat="47.394" lon="-0.37886">
        <ele>15</ele>
        <time>2012-01-15T11:20:49Z</time>
      </trkpt>
      <trkpt lat="47.39404" lon="-0.37873">
        <ele>17</ele>
        <time>2012-01-15T11:20:56Z</time>
      </trkpt>
      <trkpt lat="47.39412" lon="-0.37863">
        <ele>17</ele>
        <time>2012-01-15T11:21:06Z</time>
      </trkpt>
      <trkpt lat="47.3942" lon="-0.37839">
        <ele>20</ele>
        <time>2012-01-15T11:21:21Z</time>
      </trkpt>
      <trkpt lat="47.39424" lon="-0.37827">
        <ele>20</ele>
        <time>2012-01-15T11:21:28Z</time>
      </trkpt>
      <trkpt lat="47.39423" lon="-0.37812">
        <ele>20</ele>
        <time>2012-01-15T11:21:36Z</time>
      </trkpt>
      <trkpt lat="47.39425" lon="-0.37799">
        <ele>21</ele>
        <time>2012-01-15T11:21:43Z</time>
      </trkpt>
      <trkpt lat="47.39427" lon="-0.37787">
        <ele>21</ele>
        <time>2012-01-15T11:21:51Z</time>
      </trkpt>
      <trkpt lat="47.39434" lon="-0.37757">
        <ele>16</ele>
        <time>2012-01-15T11:23:26Z</time>
      </trkpt>
      <trkpt lat="47.39431" lon="-0.37743">
        <ele>15</ele>
        <time>2012-01-15T11:23:33Z</time>
      </trkpt>
      <trkpt lat="47.39436" lon="-0.37715">
        <ele>14</ele>
        <time>2012-01-15T11:23:52Z</time>
      </trkpt>
      <trkpt lat="47.39434" lon="-0.37704">
        <ele>14</ele>
        <time>2012-01-15T11:24:10Z</time>
      </trkpt>
      <trkpt lat="47.3943" lon="-0.37666">
        <ele>14</ele>
        <time>2012-01-15T11:24:34Z</time>
      </trkpt>
      <trkpt lat="47.3944" lon="-0.3765">
        <ele>14</ele>
        <time>2012-01-15T11:24:36Z</time>
      </trkpt>
      <trkpt lat="47.3945" lon="-0.37626">
        <ele>13</ele>
        <time>2012-01-15T11:24:50Z</time>
      </trkpt>
      <trkpt lat="47.3946" lon="-0.37623">
        <ele>13</ele>
        <time>2012-01-15T11:24:57Z</time>
      </trkpt>
      <trkpt lat="47.39469" lon="-0.37621">
        <ele>11</ele>
        <time>2012-01-15T11:25:07Z</time>
      </trkpt>
      <trkpt lat="47.39469" lon="-0.37576">
        <ele>3</ele>
        <time>2012-01-15T11:25:45Z</time>
      </trkpt>
      <trkpt lat="47.39466" lon="-0.37564">
        <ele>2</ele>
        <time>2012-01-15T11:25:54Z</time>
      </trkpt>
      <trkpt lat="47.39466" lon="-0.37549">
        <ele>-1</ele>
        <time>2012-01-15T11:26:08Z</time>
      </trkpt>
      <trkpt lat="47.39484" lon="-0.37516">
        <ele>-5</ele>
        <time>2012-01-15T11:26:37Z</time>
      </trkpt>
      <trkpt lat="47.39501" lon="-0.37507">
        <ele>-6</ele>
        <time>2012-01-15T11:26:52Z</time>
      </trkpt>
      <trkpt lat="47.39538" lon="-0.37513">
        <ele>-12</ele>
        <time>2012-01-15T11:27:25Z</time>
      </trkpt>
      <trkpt lat="47.39547" lon="-0.37519">
        <ele>-9</ele>
        <time>2012-01-15T11:27:33Z</time>
      </trkpt>
      <trkpt lat="47.39557" lon="-0.3752">
        <ele>-8</ele>
        <time>2012-01-15T11:27:41Z</time>
      </trkpt>
      <trkpt lat="47.39592" lon="-0.37523">
        <ele>-1</ele>
        <time>2012-01-15T11:28:17Z</time>
      </trkpt>
      <trkpt lat="47.39645" lon="-0.37518">
        <ele>-18</ele>
        <time>2012-01-15T11:29:14Z</time>
      </trkpt>
      <trkpt lat="47.39686" lon="-0.3753">
        <ele>-24</ele>
        <time>2012-01-15T11:29:51Z</time>
      </trkpt>
      <trkpt lat="47.39705" lon="-0.37521">
        <ele>-27</ele>
        <time>2012-01-15T11:30:04Z</time>
      </trkpt>
      <trkpt lat="47.39736" lon="-0.37524">
        <ele>-37</ele>
        <time>2012-01-15T11:30:35Z</time>
      </trkpt>
      <trkpt lat="47.39746" lon="-0.37522">
        <ele>-37</ele>
        <time>2012-01-15T11:30:42Z</time>
      </trkpt>
      <trkpt lat="47.39766" lon="-0.37523">
        <ele>-31</ele>
        <time>2012-01-15T11:30:54Z</time>
      </trkpt>
      <trkpt lat="47.39775" lon="-0.3752">
        <ele>-31</ele>
        <time>2012-01-15T11:31:01Z</time>
      </trkpt>
      <trkpt lat="47.39779" lon="-0.37507">
        <ele>-30</ele>
        <time>2012-01-15T11:31:09Z</time>
      </trkpt>
      <trkpt lat="47.39779" lon="-0.37494">
        <ele>-29</ele>
        <time>2012-01-15T11:31:17Z</time>
      </trkpt>
      <trkpt lat="47.39791" lon="-0.3749">
        <ele>-28</ele>
        <time>2012-01-15T11:31:24Z</time>
      </trkpt>
      <trkpt lat="47.39789" lon="-0.37477">
        <ele>-29</ele>
        <time>2012-01-15T11:31:33Z</time>
      </trkpt>
      <trkpt lat="47.39797" lon="-0.37463">
        <ele>-29</ele>
        <time>2012-01-15T11:31:43Z</time>
      </trkpt>
      <trkpt lat="47.39821" lon="-0.37442">
        <ele>-36</ele>
        <time>2012-01-15T11:32:07Z</time>
      </trkpt>
      <trkpt lat="47.3983" lon="-0.37437">
        <ele>-36</ele>
        <time>2012-01-15T11:32:15Z</time>
      </trkpt>
      <trkpt lat="47.39839" lon="-0.37432">
        <ele>-37</ele>
        <time>2012-01-15T11:32:25Z</time>
      </trkpt>
      <trkpt lat="47.39848" lon="-0.37429">
        <ele>-35</ele>
        <time>2012-01-15T11:32:31Z</time>
      </trkpt>
      <trkpt lat="47.39858" lon="-0.37426">
        <ele>-36</ele>
        <time>2012-01-15T11:32:38Z</time>
      </trkpt>
      <trkpt lat="47.39876" lon="-0.37412">
        <ele>-38</ele>
        <time>2012-01-15T11:32:50Z</time>
      </trkpt>
      <trkpt lat="47.39879" lon="-0.37393">
        <ele>-41</ele>
        <time>2012-01-15T11:33:04Z</time>
      </trkpt>
      <trkpt lat="47.39877" lon="-0.37365">
        <ele>-42</ele>
        <time>2012-01-15T11:33:18Z</time>
      </trkpt>
      <trkpt lat="47.39883" lon="-0.37356">
        <ele>-44</ele>
        <time>2012-01-15T11:33:41Z</time>
      </trkpt>
      <trkpt lat="47.39887" lon="-0.37354">
        <ele>-44</ele>
        <time>2012-01-15T11:34:05Z</time>
      </trkpt>
      <trkpt lat="47.39898" lon="-0.37337">
        <ele>-41</ele>
        <time>2012-01-15T11:34:29Z</time>
      </trkpt>
      <trkpt lat="47.3991" lon="-0.37316">
        <ele>-40</ele>
        <time>2012-01-15T11:34:45Z</time>
      </trkpt>
      <trkpt lat="47.39913" lon="-0.37303">
        <ele>-39</ele>
        <time>2012-01-15T11:34:52Z</time>
      </trkpt>
      <trkpt lat="47.39927" lon="-0.37286">
        <ele>-38</ele>
        <time>2012-01-15T11:35:07Z</time>
      </trkpt>
      <trkpt lat="47.39949" lon="-0.37272">
        <ele>-35</ele>
        <time>2012-01-15T11:35:26Z</time>
      </trkpt>
      <trkpt lat="47.39958" lon="-0.37267">
        <ele>-36</ele>
        <time>2012-01-15T11:35:38Z</time>
      </trkpt>
      <trkpt lat="47.39965" lon="-0.37258">
        <ele>-36</ele>
        <time>2012-01-15T11:35:47Z</time>
      </trkpt>
      <trkpt lat="47.39975" lon="-0.37256">
        <ele>-35</ele>
        <time>2012-01-15T11:35:53Z</time>
      </trkpt>
      <trkpt lat="47.39981" lon="-0.37258">
        <ele>-34</ele>
        <time>2012-01-15T11:36:08Z</time>
      </trkpt>
      <trkpt lat="47.39983" lon="-0.37245">
        <ele>-34</ele>
        <time>2012-01-15T11:36:13Z</time>
      </trkpt>
      <trkpt lat="47.39983" lon="-0.37222">
        <ele>-32</ele>
        <time>2012-01-15T11:36:35Z</time>
      </trkpt>
    </trkseg>
  </trk>
</gpx>